sensor_id;sensor_type;location;lat;lon;timestamp;temperature;humidity
22996;DHT22;11664;49.774;8.650;2023-04-23T00:01:04;13.30;99.90
22996;DHT22;11664;49.774;8.650;2023-04-23T00:03:31;13.30;99.90
22996;DHT22;11664;49.774;8.650;2023-04-23T00:06:07;13.20;99.90
22996;DHT22;11664;49.774;8.650;2023-04-23T00:08:38;13.20;99.90
22996;DHT22;11664;49.774;8.650;2023-04-23T00:11:04;13.20;99.90
22996;DHT22;11664;49.774;8.650;2023-04-23T00:13:31;13.30;99.90
22996;DHT22;11664;49.774;8.650;2023-04-23T00:15:57;13.20;99.90
22996;DHT22;11664;49.774;8.650;2023-04-23T00:18:28;13.20;99.90
22996;DHT22;11664;49.774;8.650;2023-04-23T00:20:57;13.20;99.90
22996;DHT22;11664;49.774;8.650;2023-04-23T00:23:27;13.20;99.90
22996;DHT22;11664;49.774;8.650;2023-04-23T00:26:05;13.20;99.90
22996;DHT22;11664;49.774;8.650;2023-04-23T00:28:30;13.20;99.90
22996;DHT22;11664;49.774;8.650;2023-04-23T00:30:56;13.20;99.90
22996;DHT22;11664;49.774;8.650;2023-04-23T00:33:28;13.20;99.90
22996;DHT22;11664;49.774;8.650;2023-04-23T00:35:53;13.20;99.90
22996;DHT22;11664;49.774;8.650;2023-04-23T00:38:28;13.20;99.90
22996;DHT22;11664;49.774;8.650;2023-04-23T00:40:56;13.20;99.90
22996;DHT22;11664;49.774;8.650;2023-04-23T00:43:28;13.20;99.90
22996;DHT22;11664;49.774;8.650;2023-04-23T00:46:00;13.20;99.90
22996;DHT22;11664;49.774;8.650;2023-04-23T00:48:26;13.10;99.90
22996;DHT22;11664;49.774;8.650;2023-04-23T00:50:59;13.10;99.90
22996;DHT22;11664;49.774;8.650;2023-04-23T00:53:25;13.10;99.90
22996;DHT22;11664;49.774;8.650;2023-04-23T00:55:57;13.20;99.90
22996;DHT22;11664;49.774;8.650;2023-04-23T00:58:24;13.10;99.90
22996;DHT22;11664;49.774;8.650;2023-04-23T01:00:49;13.10;99.90
22996;DHT22;11664;49.774;8.650;2023-04-23T01:03:16;13.10;99.90
22996;DHT22;11664;49.774;8.650;2023-04-23T01:05:43;13.10;99.90
22996;DHT22;11664;49.774;8.650;2023-04-23T01:08:14;13.10;99.90
22996;DHT22;11664;49.774;8.650;2023-04-23T01:10:46;13.10;99.90
22996;DHT22;11664;49.774;8.650;2023-04-23T01:13:18;13.10;99.90
22996;DHT22;11664;49.774;8.650;2023-04-23T01:15:50;13.00;99.90
22996;DHT22;11664;49.774;8.650;2023-04-23T01:18:19;13.00;99.90
22996;DHT22;11664;49.774;8.650;2023-04-23T01:20:47;13.00;99.90
22996;DHT22;11664;49.774;8.650;2023-04-23T01:23:20;13.00;99.90
22996;DHT22;11664;49.774;8.650;2023-04-23T01:25:48;13.00;99.90
22996;DHT22;11664;49.774;8.650;2023-04-23T01:28:14;12.90;99.90
22996;DHT22;11664;49.774;8.650;2023-04-23T01:30:42;12.90;99.90
22996;DHT22;11664;49.774;8.650;2023-04-23T01:33:08;12.90;99.90
22996;DHT22;11664;49.774;8.650;2023-04-23T01:35:38;12.90;99.90
22996;DHT22;11664;49.774;8.650;2023-04-23T01:38:09;12.80;99.90
22996;DHT22;11664;49.774;8.650;2023-04-23T01:40:36;12.90;99.90
22996;DHT22;11664;49.774;8.650;2023-04-23T01:43:02;12.80;99.90
22996;DHT22;11664;49.774;8.650;2023-04-23T01:45:32;12.80;99.90
22996;DHT22;11664;49.774;8.650;2023-04-23T01:47:59;12.80;99.90
22996;DHT22;11664;49.774;8.650;2023-04-23T01:50:25;12.80;99.90
22996;DHT22;11664;49.774;8.650;2023-04-23T01:52:52;12.80;99.90
22996;DHT22;11664;49.774;8.650;2023-04-23T01:55:17;12.80;99.90
22996;DHT22;11664;49.774;8.650;2023-04-23T02:01:05;12.80;99.90
22996;DHT22;11664;49.774;8.650;2023-04-23T02:03:36;12.80;99.90
22996;DHT22;11664;49.774;8.650;2023-04-23T02:06:05;12.70;99.90
22996;DHT22;11664;49.774;8.650;2023-04-23T02:08:37;12.70;99.90
22996;DHT22;11664;49.774;8.650;2023-04-23T02:11:06;12.70;99.90
22996;DHT22;11664;49.774;8.650;2023-04-23T02:13:32;12.70;99.90
22996;DHT22;11664;49.774;8.650;2023-04-23T02:15:57;12.70;99.90
22996;DHT22;11664;49.774;8.650;2023-04-23T02:18:26;12.70;99.90
22996;DHT22;11664;49.774;8.650;2023-04-23T02:20:54;12.70;99.90
22996;DHT22;11664;49.774;8.650;2023-04-23T02:23:24;12.70;99.90
22996;DHT22;11664;49.774;8.650;2023-04-23T02:25:50;12.70;99.90
22996;DHT22;11664;49.774;8.650;2023-04-23T02:28:19;12.70;99.90
22996;DHT22;11664;49.774;8.650;2023-04-23T02:30:51;12.70;99.90
22996;DHT22;11664;49.774;8.650;2023-04-23T02:33:25;12.60;99.90
22996;DHT22;11664;49.774;8.650;2023-04-23T02:35:54;12.70;99.90
22996;DHT22;11664;49.774;8.650;2023-04-23T02:38:19;12.60;99.90
22996;DHT22;11664;49.774;8.650;2023-04-23T02:40:45;12.60;99.90
22996;DHT22;11664;49.774;8.650;2023-04-23T02:43:13;12.70;99.90
22996;DHT22;11664;49.774;8.650;2023-04-23T02:45:39;12.70;99.90
22996;DHT22;11664;49.774;8.650;2023-04-23T02:48:14;12.60;99.90
22996;DHT22;11664;49.774;8.650;2023-04-23T02:50:42;12.60;99.90
22996;DHT22;11664;49.774;8.650;2023-04-23T02:53:14;12.70;99.90
22996;DHT22;11664;49.774;8.650;2023-04-23T02:55:39;12.60;99.90
22996;DHT22;11664;49.774;8.650;2023-04-23T02:58:08;12.60;99.90
22996;DHT22;11664;49.774;8.650;2023-04-23T03:00:34;12.60;99.90
22996;DHT22;11664;49.774;8.650;2023-04-23T03:03:00;12.60;99.90
22996;DHT22;11664;49.774;8.650;2023-04-23T03:05:28;12.60;99.90
22996;DHT22;11664;49.774;8.650;2023-04-23T03:07:57;12.60;99.90
22996;DHT22;11664;49.774;8.650;2023-04-23T03:10:22;12.70;99.90
22996;DHT22;11664;49.774;8.650;2023-04-23T03:12:48;12.60;99.90
22996;DHT22;11664;49.774;8.650;2023-04-23T03:15:14;12.60;99.90
22996;DHT22;11664;49.774;8.650;2023-04-23T03:17:40;12.50;99.90
22996;DHT22;11664;49.774;8.650;2023-04-23T03:20:08;12.60;99.90
22996;DHT22;11664;49.774;8.650;2023-04-23T03:22:42;12.50;99.90
22996;DHT22;11664;49.774;8.650;2023-04-23T03:25:07;12.60;99.90
22996;DHT22;11664;49.774;8.650;2023-04-23T03:27:33;12.60;99.90
22996;DHT22;11664;49.774;8.650;2023-04-23T03:29:59;12.60;99.90
22996;DHT22;11664;49.774;8.650;2023-04-23T03:32:27;12.50;99.90
22996;DHT22;11664;49.774;8.650;2023-04-23T03:34:53;12.50;99.90
22996;DHT22;11664;49.774;8.650;2023-04-23T03:37:18;12.50;99.90
22996;DHT22;11664;49.774;8.650;2023-04-23T03:39:44;12.50;99.90
22996;DHT22;11664;49.774;8.650;2023-04-23T03:42:09;12.60;99.90
22996;DHT22;11664;49.774;8.650;2023-04-23T03:44:41;12.50;99.90
22996;DHT22;11664;49.774;8.650;2023-04-23T03:47:06;12.50;99.90
22996;DHT22;11664;49.774;8.650;2023-04-23T03:49:32;12.50;99.90
22996;DHT22;11664;49.774;8.650;2023-04-23T03:51:57;12.50;99.90
22996;DHT22;11664;49.774;8.650;2023-04-23T03:54:23;12.50;99.90
22996;DHT22;11664;49.774;8.650;2023-04-23T03:57:05;12.50;99.90
22996;DHT22;11664;49.774;8.650;2023-04-23T03:59:30;12.50;99.90
22996;DHT22;11664;49.774;8.650;2023-04-23T04:01:59;12.60;99.90
22996;DHT22;11664;49.774;8.650;2023-04-23T04:04:25;12.50;99.90
22996;DHT22;11664;49.774;8.650;2023-04-23T04:06:51;12.50;99.90
22996;DHT22;11664;49.774;8.650;2023-04-23T04:09:16;12.50;99.90
22996;DHT22;11664;49.774;8.650;2023-04-23T04:11:42;12.50;99.90
22996;DHT22;11664;49.774;8.650;2023-04-23T04:14:07;12.50;99.90
22996;DHT22;11664;49.774;8.650;2023-04-23T04:16:33;12.40;99.90
22996;DHT22;11664;49.774;8.650;2023-04-23T04:18:58;12.40;99.90
22996;DHT22;11664;49.774;8.650;2023-04-23T04:21:25;12.40;99.90
22996;DHT22;11664;49.774;8.650;2023-04-23T04:23:52;12.30;99.90
22996;DHT22;11664;49.774;8.650;2023-04-23T04:26:18;12.30;99.90
22996;DHT22;11664;49.774;8.650;2023-04-23T04:28:43;12.30;99.90
22996;DHT22;11664;49.774;8.650;2023-04-23T04:31:15;12.30;99.90
22996;DHT22;11664;49.774;8.650;2023-04-23T04:33:41;12.20;99.90
22996;DHT22;11664;49.774;8.650;2023-04-23T04:36:13;12.20;99.90
22996;DHT22;11664;49.774;8.650;2023-04-23T04:38:50;12.20;99.90
22996;DHT22;11664;49.774;8.650;2023-04-23T04:41:19;12.20;99.90
22996;DHT22;11664;49.774;8.650;2023-04-23T04:43:52;12.20;99.90
22996;DHT22;11664;49.774;8.650;2023-04-23T04:46:19;12.20;99.90
22996;DHT22;11664;49.774;8.650;2023-04-23T06:06:25;12.40;99.90
22996;DHT22;11664;49.774;8.650;2023-04-23T06:08:52;12.40;99.90
22996;DHT22;11664;49.774;8.650;2023-04-23T06:11:17;12.40;99.90
22996;DHT22;11664;49.774;8.650;2023-04-23T06:13:43;12.40;99.90
22996;DHT22;11664;49.774;8.650;2023-04-23T06:16:09;12.40;99.90
22996;DHT22;11664;49.774;8.650;2023-04-23T06:18:34;12.40;99.90
22996;DHT22;11664;49.774;8.650;2023-04-23T06:21:02;12.40;99.90
22996;DHT22;11664;49.774;8.650;2023-04-23T06:23:29;12.40;99.90
22996;DHT22;11664;49.774;8.650;2023-04-23T06:25:55;12.40;99.90
22996;DHT22;11664;49.774;8.650;2023-04-23T06:28:20;12.40;99.90
22996;DHT22;11664;49.774;8.650;2023-04-23T06:30:46;12.40;99.90
22996;DHT22;11664;49.774;8.650;2023-04-23T06:33:12;12.40;99.90
22996;DHT22;11664;49.774;8.650;2023-04-23T06:35:37;12.40;99.90
22996;DHT22;11664;49.774;8.650;2023-04-23T06:38:03;12.40;99.90
22996;DHT22;11664;49.774;8.650;2023-04-23T06:40:29;12.40;99.90
22996;DHT22;11664;49.774;8.650;2023-04-23T06:42:54;12.40;99.90
22996;DHT22;11664;49.774;8.650;2023-04-23T06:45:20;12.50;99.90
22996;DHT22;11664;49.774;8.650;2023-04-23T06:47:45;12.50;99.90
22996;DHT22;11664;49.774;8.650;2023-04-23T06:50:13;12.60;99.90
22996;DHT22;11664;49.774;8.650;2023-04-23T06:52:38;12.60;99.90
22996;DHT22;11664;49.774;8.650;2023-04-23T06:55:05;12.70;99.90
22996;DHT22;11664;49.774;8.650;2023-04-23T06:57:30;12.80;99.90
22996;DHT22;11664;49.774;8.650;2023-04-23T06:59:56;12.90;99.90
22996;DHT22;11664;49.774;8.650;2023-04-23T07:02:21;13.00;99.90
22996;DHT22;11664;49.774;8.650;2023-04-23T07:04:47;13.00;99.90
22996;DHT22;11664;49.774;8.650;2023-04-23T07:07:12;13.00;99.90
22996;DHT22;11664;49.774;8.650;2023-04-23T07:09:38;13.10;99.90
22996;DHT22;11664;49.774;8.650;2023-04-23T07:12:03;13.10;99.90
22996;DHT22;11664;49.774;8.650;2023-04-23T07:14:29;13.10;99.90
22996;DHT22;11664;49.774;8.650;2023-04-23T07:16:54;13.30;99.90
22996;DHT22;11664;49.774;8.650;2023-04-23T07:19:20;13.30;99.90
22996;DHT22;11664;49.774;8.650;2023-04-23T07:21:45;13.40;99.90
22996;DHT22;11664;49.774;8.650;2023-04-23T07:24:11;13.40;99.90
22996;DHT22;11664;49.774;8.650;2023-04-23T07:26:36;13.50;99.90
22996;DHT22;11664;49.774;8.650;2023-04-23T07:29:03;13.60;99.90
22996;DHT22;11664;49.774;8.650;2023-04-23T07:31:31;13.70;99.90
22996;DHT22;11664;49.774;8.650;2023-04-23T07:33:56;13.80;99.90
22996;DHT22;11664;49.774;8.650;2023-04-23T07:36:22;13.90;99.90
22996;DHT22;11664;49.774;8.650;2023-04-23T07:38:47;13.90;99.90
22996;DHT22;11664;49.774;8.650;2023-04-23T07:41:13;13.90;99.90
22996;DHT22;11664;49.774;8.650;2023-04-23T07:43:39;14.00;99.90
22996;DHT22;11664;49.774;8.650;2023-04-23T07:46:06;14.10;99.90
22996;DHT22;11664;49.774;8.650;2023-04-23T07:48:31;14.20;99.90
22996;DHT22;11664;49.774;8.650;2023-04-23T07:50:59;14.30;99.90
22996;DHT22;11664;49.774;8.650;2023-04-23T07:53:24;14.50;99.90
22996;DHT22;11664;49.774;8.650;2023-04-23T07:55:53;14.40;99.90
22996;DHT22;11664;49.774;8.650;2023-04-23T07:58:19;14.50;99.90
22996;DHT22;11664;49.774;8.650;2023-04-23T08:00:45;14.60;99.90
22996;DHT22;11664;49.774;8.650;2023-04-23T08:03:10;14.60;99.90
22996;DHT22;11664;49.774;8.650;2023-04-23T08:05:36;14.70;99.90
22996;DHT22;11664;49.774;8.650;2023-04-23T08:08:03;14.90;99.90
22996;DHT22;11664;49.774;8.650;2023-04-23T08:10:28;15.10;99.90
22996;DHT22;11664;49.774;8.650;2023-04-23T08:12:54;15.20;99.90
22996;DHT22;11664;49.774;8.650;2023-04-23T08:15:20;15.30;99.90
22996;DHT22;11664;49.774;8.650;2023-04-23T08:17:45;15.50;99.90
22996;DHT22;11664;49.774;8.650;2023-04-23T08:20:11;15.40;99.90
22996;DHT22;11664;49.774;8.650;2023-04-23T08:22:36;15.20;99.90
22996;DHT22;11664;49.774;8.650;2023-04-23T08:25:02;15.10;99.90
22996;DHT22;11664;49.774;8.650;2023-04-23T08:27:29;15.00;99.90
22996;DHT22;11664;49.774;8.650;2023-04-23T08:29:55;15.00;99.90
22996;DHT22;11664;49.774;8.650;2023-04-23T08:32:20;15.00;99.90
22996;DHT22;11664;49.774;8.650;2023-04-23T08:34:46;15.00;99.90
22996;DHT22;11664;49.774;8.650;2023-04-23T08:37:11;15.20;99.90
22996;DHT22;11664;49.774;8.650;2023-04-23T08:39:37;15.20;99.90
22996;DHT22;11664;49.774;8.650;2023-04-23T08:42:32;15.20;99.90
22996;DHT22;11664;49.774;8.650;2023-04-23T08:44:59;15.20;99.90
22996;DHT22;11664;49.774;8.650;2023-04-23T08:47:29;15.40;99.90
22996;DHT22;11664;49.774;8.650;2023-04-23T08:49:58;15.50;99.90
22996;DHT22;11664;49.774;8.650;2023-04-23T08:52:25;15.60;99.90
22996;DHT22;11664;49.774;8.650;2023-04-23T08:54:58;15.60;99.90
22996;DHT22;11664;49.774;8.650;2023-04-23T08:57:25;15.50;99.90
22996;DHT22;11664;49.774;8.650;2023-04-23T08:59:51;15.50;99.90
22996;DHT22;11664;49.774;8.650;2023-04-23T09:02:17;15.40;99.90
22996;DHT22;11664;49.774;8.650;2023-04-23T09:04:44;15.60;99.90
22996;DHT22;11664;49.774;8.650;2023-04-23T09:07:11;15.90;99.90
22996;DHT22;11664;49.774;8.650;2023-04-23T09:09:38;16.20;99.90
22996;DHT22;11664;49.774;8.650;2023-04-23T09:12:05;16.60;99.90
22996;DHT22;11664;49.774;8.650;2023-04-23T09:14:32;16.90;99.90
22996;DHT22;11664;49.774;8.650;2023-04-23T09:16:57;17.10;99.90
22996;DHT22;11664;49.774;8.650;2023-04-23T09:19:25;17.20;99.90
22996;DHT22;11664;49.774;8.650;2023-04-23T09:21:58;17.20;99.90
22996;DHT22;11664;49.774;8.650;2023-04-23T09:24:26;17.40;99.90
22996;DHT22;11664;49.774;8.650;2023-04-23T09:26:52;17.40;99.90
22996;DHT22;11664;49.774;8.650;2023-04-23T09:29:21;17.40;99.90
22996;DHT22;11664;49.774;8.650;2023-04-23T09:31:53;17.30;99.90
22996;DHT22;11664;49.774;8.650;2023-04-23T09:34:21;17.30;99.90
22996;DHT22;11664;49.774;8.650;2023-04-23T09:36:49;17.50;99.90
22996;DHT22;11664;49.774;8.650;2023-04-23T09:39:16;17.40;99.90
22996;DHT22;11664;49.774;8.650;2023-04-23T09:41:42;17.70;99.90
22996;DHT22;11664;49.774;8.650;2023-04-23T09:44:11;17.80;99.90
22996;DHT22;11664;49.774;8.650;2023-04-23T09:46:40;17.90;99.90
22996;DHT22;11664;49.774;8.650;2023-04-23T09:49:07;17.80;99.90
22996;DHT22;11664;49.774;8.650;2023-04-23T09:51:37;17.90;99.90
22996;DHT22;11664;49.774;8.650;2023-04-23T09:54:10;18.20;99.90
22996;DHT22;11664;49.774;8.650;2023-04-23T09:56:36;18.60;99.90
22996;DHT22;11664;49.774;8.650;2023-04-23T09:59:01;18.80;99.90
22996;DHT22;11664;49.774;8.650;2023-04-23T10:01:28;18.80;99.90
22996;DHT22;11664;49.774;8.650;2023-04-23T10:03:54;19.10;99.90
22996;DHT22;11664;49.774;8.650;2023-04-23T10:06:26;19.20;99.90
22996;DHT22;11664;49.774;8.650;2023-04-23T10:08:55;19.30;99.90
22996;DHT22;11664;49.774;8.650;2023-04-23T10:11:23;19.20;99.90
22996;DHT22;11664;49.774;8.650;2023-04-23T10:13:49;19.00;99.90
22996;DHT22;11664;49.774;8.650;2023-04-23T10:16:16;18.80;99.90
22996;DHT22;11664;49.774;8.650;2023-04-23T10:18:43;18.80;99.90
22996;DHT22;11664;49.774;8.650;2023-04-23T10:21:09;18.70;99.90
22996;DHT22;11664;49.774;8.650;2023-04-23T10:23:37;18.60;99.90
22996;DHT22;11664;49.774;8.650;2023-04-23T10:26:04;18.60;99.90
22996;DHT22;11664;49.774;8.650;2023-04-23T10:28:32;18.90;99.90
22996;DHT22;11664;49.774;8.650;2023-04-23T10:30:58;19.30;99.90
22996;DHT22;11664;49.774;8.650;2023-04-23T10:33:25;19.60;99.90
22996;DHT22;11664;49.774;8.650;2023-04-23T10:35:53;19.80;99.90
22996;DHT22;11664;49.774;8.650;2023-04-23T10:38:21;20.10;99.90
22996;DHT22;11664;49.774;8.650;2023-04-23T10:40:49;20.20;99.90
22996;DHT22;11664;49.774;8.650;2023-04-23T10:43:15;20.20;99.90
22996;DHT22;11664;49.774;8.650;2023-04-23T10:45:42;20.00;99.90
22996;DHT22;11664;49.774;8.650;2023-04-23T10:48:08;19.70;99.90
22996;DHT22;11664;49.774;8.650;2023-04-23T10:50:34;19.50;99.90
22996;DHT22;11664;49.774;8.650;2023-04-23T10:53:01;19.40;99.90
22996;DHT22;11664;49.774;8.650;2023-04-23T10:55:29;19.30;99.90
22996;DHT22;11664;49.774;8.650;2023-04-23T10:58:05;19.30;99.90
22996;DHT22;11664;49.774;8.650;2023-04-23T11:03:30;19.40;99.90
22996;DHT22;11664;49.774;8.650;2023-04-23T11:06:02;19.70;99.90
22996;DHT22;11664;49.774;8.650;2023-04-23T11:08:29;19.60;99.90
22996;DHT22;11664;49.774;8.650;2023-04-23T11:10:59;19.60;99.90
22996;DHT22;11664;49.774;8.650;2023-04-23T11:13:26;19.60;99.90
22996;DHT22;11664;49.774;8.650;2023-04-23T11:16:14;19.50;99.90
22996;DHT22;11664;49.774;8.650;2023-04-23T11:19:14;19.50;99.90
22996;DHT22;11664;49.774;8.650;2023-04-23T11:22:06;19.50;99.90
22996;DHT22;11664;49.774;8.650;2023-04-23T11:24:38;19.30;99.90
22996;DHT22;11664;49.774;8.650;2023-04-23T11:27:09;19.50;99.90
22996;DHT22;11664;49.774;8.650;2023-04-23T11:29:36;20.20;99.90
22996;DHT22;11664;49.774;8.650;2023-04-23T11:32:03;20.60;99.90
22996;DHT22;11664;49.774;8.650;2023-04-23T11:34:31;20.60;99.90
22996;DHT22;11664;49.774;8.650;2023-04-23T11:36:58;20.70;99.90
22996;DHT22;11664;49.774;8.650;2023-04-23T11:39:24;20.60;99.90
22996;DHT22;11664;49.774;8.650;2023-04-23T11:41:50;20.30;99.90
22996;DHT22;11664;49.774;8.650;2023-04-23T11:44:17;20.10;99.90
22996;DHT22;11664;49.774;8.650;2023-04-23T11:46:45;20.00;99.90
22996;DHT22;11664;49.774;8.650;2023-04-23T11:49:11;20.00;99.90
22996;DHT22;11664;49.774;8.650;2023-04-23T11:51:43;20.00;99.90
22996;DHT22;11664;49.774;8.650;2023-04-23T11:54:09;20.20;99.90
22996;DHT22;11664;49.774;8.650;2023-04-23T11:56:36;20.50;99.90
22996;DHT22;11664;49.774;8.650;2023-04-23T11:59:03;21.00;99.90
22996;DHT22;11664;49.774;8.650;2023-04-23T12:01:46;21.70;99.90
22996;DHT22;11664;49.774;8.650;2023-04-23T12:04:13;21.70;97.50
22996;DHT22;11664;49.774;8.650;2023-04-23T12:06:41;21.50;95.40
22996;DHT22;11664;49.774;8.650;2023-04-23T12:09:07;21.20;95.10
22996;DHT22;11664;49.774;8.650;2023-04-23T12:11:36;20.80;95.20
22996;DHT22;11664;49.774;8.650;2023-04-23T12:14:02;20.70;96.30
22996;DHT22;11664;49.774;8.650;2023-04-23T12:16:42;20.80;97.50
22996;DHT22;11664;49.774;8.650;2023-04-23T12:19:13;21.10;97.20
22996;DHT22;11664;49.774;8.650;2023-04-23T12:21:53;21.50;98.10
22996;DHT22;11664;49.774;8.650;2023-04-23T12:24:21;21.70;95.90
22996;DHT22;11664;49.774;8.650;2023-04-23T12:26:55;22.20;97.50
22996;DHT22;11664;49.774;8.650;2023-04-23T12:29:21;22.50;95.00
22996;DHT22;11664;49.774;8.650;2023-04-23T12:31:48;22.70;92.70
22996;DHT22;11664;49.774;8.650;2023-04-23T12:34:14;22.30;92.70
22996;DHT22;11664;49.774;8.650;2023-04-23T12:36:46;22.50;93.40
22996;DHT22;11664;49.774;8.650;2023-04-23T12:41:59;23.40;94.90
22996;DHT22;11664;49.774;8.650;2023-04-23T12:44:28;23.60;92.70
22996;DHT22;11664;49.774;8.650;2023-04-23T12:47:00;23.70;92.50
22996;DHT22;11664;49.774;8.650;2023-04-23T12:49:28;23.80;91.20
22996;DHT22;11664;49.774;8.650;2023-04-23T12:51:57;24.00;88.10
22996;DHT22;11664;49.774;8.650;2023-04-23T12:54:30;24.00;89.50
22996;DHT22;11664;49.774;8.650;2023-04-23T12:56:57;24.10;90.60
22996;DHT22;11664;49.774;8.650;2023-04-23T12:59:22;24.10;90.00
22996;DHT22;11664;49.774;8.650;2023-04-23T13:01:49;24.30;88.20
22996;DHT22;11664;49.774;8.650;2023-04-23T13:04:18;24.50;86.40
22996;DHT22;11664;49.774;8.650;2023-04-23T13:06:44;24.20;80.20
22996;DHT22;11664;49.774;8.650;2023-04-23T13:09:10;24.00;81.40
22996;DHT22;11664;49.774;8.650;2023-04-23T13:11:37;24.00;81.40
22996;DHT22;11664;49.774;8.650;2023-04-23T13:14:04;23.90;81.90
22996;DHT22;11664;49.774;8.650;2023-04-23T13:16:29;23.80;82.20
22996;DHT22;11664;49.774;8.650;2023-04-23T13:18:55;23.80;81.90
22996;DHT22;11664;49.774;8.650;2023-04-23T13:21:21;24.00;84.10
22996;DHT22;11664;49.774;8.650;2023-04-23T13:23:47;23.80;80.70
22996;DHT22;11664;49.774;8.650;2023-04-23T13:26:12;24.20;82.20
22996;DHT22;11664;49.774;8.650;2023-04-23T13:28:38;24.20;79.00
22996;DHT22;11664;49.774;8.650;2023-04-23T13:31:04;24.10;76.60
22996;DHT22;11664;49.774;8.650;2023-04-23T13:33:31;24.10;80.10
22996;DHT22;11664;49.774;8.650;2023-04-23T13:35:58;24.20;81.00
22996;DHT22;11664;49.774;8.650;2023-04-23T13:38:25;24.10;77.90
22996;DHT22;11664;49.774;8.650;2023-04-23T13:40:51;24.00;77.50
22996;DHT22;11664;49.774;8.650;2023-04-23T13:43:17;23.30;76.40
22996;DHT22;11664;49.774;8.650;2023-04-23T13:45:44;22.60;77.50
22996;DHT22;11664;49.774;8.650;2023-04-23T13:48:10;22.00;80.10
22996;DHT22;11664;49.774;8.650;2023-04-23T13:50:36;21.50;80.60
22996;DHT22;11664;49.774;8.650;2023-04-23T13:53:02;21.10;81.50
22996;DHT22;11664;49.774;8.650;2023-04-23T13:55:28;20.90;83.40
22996;DHT22;11664;49.774;8.650;2023-04-23T13:57:53;20.80;84.80
22996;DHT22;11664;49.774;8.650;2023-04-23T14:00:23;20.70;87.80
22996;DHT22;11664;49.774;8.650;2023-04-23T14:02:48;20.80;89.70
22996;DHT22;11664;49.774;8.650;2023-04-23T14:05:14;20.90;87.60
22996;DHT22;11664;49.774;8.650;2023-04-23T14:07:40;21.70;90.20
22996;DHT22;11664;49.774;8.650;2023-04-23T14:10:06;22.00;80.70
22996;DHT22;11664;49.774;8.650;2023-04-23T14:12:31;22.20;81.20
22996;DHT22;11664;49.774;8.650;2023-04-23T14:14:57;22.50;83.90
22996;DHT22;11664;49.774;8.650;2023-04-23T14:17:22;22.80;81.60
22996;DHT22;11664;49.774;8.650;2023-04-23T14:19:48;23.20;81.10
22996;DHT22;11664;49.774;8.650;2023-04-23T14:22:14;23.50;84.40
22996;DHT22;11664;49.774;8.650;2023-04-23T14:24:50;24.00;81.50
22996;DHT22;11664;49.774;8.650;2023-04-23T14:27:20;24.30;78.30
22996;DHT22;11664;49.774;8.650;2023-04-23T14:29:55;24.60;75.80
22996;DHT22;11664;49.774;8.650;2023-04-23T14:32:21;24.30;78.40
22996;DHT22;11664;49.774;8.650;2023-04-23T14:34:47;23.80;78.00
22996;DHT22;11664;49.774;8.650;2023-04-23T14:37:13;23.40;80.10
22996;DHT22;11664;49.774;8.650;2023-04-23T14:39:39;23.20;82.20
22996;DHT22;11664;49.774;8.650;2023-04-23T14:42:05;23.10;82.30
22996;DHT22;11664;49.774;8.650;2023-04-23T14:44:30;23.00;82.70
22996;DHT22;11664;49.774;8.650;2023-04-23T14:46:56;22.80;83.60
22996;DHT22;11664;49.774;8.650;2023-04-23T14:49:22;22.60;82.60
22996;DHT22;11664;49.774;8.650;2023-04-23T14:51:49;22.50;85.00
22996;DHT22;11664;49.774;8.650;2023-04-23T14:54:15;22.40;85.80
22996;DHT22;11664;49.774;8.650;2023-04-23T14:56:41;22.40;84.20
22996;DHT22;11664;49.774;8.650;2023-04-23T14:59:07;22.30;81.60
22996;DHT22;11664;49.774;8.650;2023-04-23T15:01:33;22.40;85.90
22996;DHT22;11664;49.774;8.650;2023-04-23T15:03:58;22.50;84.00
22996;DHT22;11664;49.774;8.650;2023-04-23T15:06:24;22.50;83.90
22996;DHT22;11664;49.774;8.650;2023-04-23T15:08:49;22.40;83.70
22996;DHT22;11664;49.774;8.650;2023-04-23T15:11:15;22.30;82.30
22996;DHT22;11664;49.774;8.650;2023-04-23T15:14:06;22.20;83.50
22996;DHT22;11664;49.774;8.650;2023-04-23T15:16:33;21.80;83.30
22996;DHT22;11664;49.774;8.650;2023-04-23T15:19:03;21.60;82.10
22996;DHT22;11664;49.774;8.650;2023-04-23T15:21:31;21.30;85.10
22996;DHT22;11664;49.774;8.650;2023-04-23T15:23:57;21.10;85.50
22996;DHT22;11664;49.774;8.650;2023-04-23T15:26:22;20.90;90.30
22996;DHT22;11664;49.774;8.650;2023-04-23T15:28:49;20.80;89.40
22996;DHT22;11664;49.774;8.650;2023-04-23T15:31:15;20.70;90.10
22996;DHT22;11664;49.774;8.650;2023-04-23T15:33:41;20.60;90.40
22996;DHT22;11664;49.774;8.650;2023-04-23T15:36:06;20.50;88.40
22996;DHT22;11664;49.774;8.650;2023-04-23T15:38:32;20.40;90.50
22996;DHT22;11664;49.774;8.650;2023-04-23T15:40:59;20.30;90.40
22996;DHT22;11664;49.774;8.650;2023-04-23T15:43:24;20.20;89.90
22996;DHT22;11664;49.774;8.650;2023-04-23T15:45:50;20.10;91.40
22996;DHT22;11664;49.774;8.650;2023-04-23T15:48:17;19.90;91.30
22996;DHT22;11664;49.774;8.650;2023-04-23T15:50:44;19.80;91.10
22996;DHT22;11664;49.774;8.650;2023-04-23T15:53:10;19.60;91.80
22996;DHT22;11664;49.774;8.650;2023-04-23T15:55:35;19.50;92.80
22996;DHT22;11664;49.774;8.650;2023-04-23T15:58:03;19.40;92.80
22996;DHT22;11664;49.774;8.650;2023-04-23T16:00:29;19.20;93.40
22996;DHT22;11664;49.774;8.650;2023-04-23T16:02:56;19.10;93.70
22996;DHT22;11664;49.774;8.650;2023-04-23T16:05:22;19.10;93.80
22996;DHT22;11664;49.774;8.650;2023-04-23T16:07:48;19.00;94.10
22996;DHT22;11664;49.774;8.650;2023-04-23T16:10:14;18.90;94.30
22996;DHT22;11664;49.774;8.650;2023-04-23T16:12:39;18.90;94.20
22996;DHT22;11664;49.774;8.650;2023-04-23T16:15:10;18.80;95.30
22996;DHT22;11664;49.774;8.650;2023-04-23T16:17:36;18.50;99.90
22996;DHT22;11664;49.774;8.650;2023-04-23T16:20:02;18.00;99.90
22996;DHT22;11664;49.774;8.650;2023-04-23T16:22:29;17.60;99.90
22996;DHT22;11664;49.774;8.650;2023-04-23T16:24:54;17.20;99.90
22996;DHT22;11664;49.774;8.650;2023-04-23T16:27:20;16.90;99.90
22996;DHT22;11664;49.774;8.650;2023-04-23T16:29:46;16.70;99.90
22996;DHT22;11664;49.774;8.650;2023-04-23T16:32:11;16.50;99.90
22996;DHT22;11664;49.774;8.650;2023-04-23T16:34:37;16.30;99.90
22996;DHT22;11664;49.774;8.650;2023-04-23T16:37:02;16.30;99.90
22996;DHT22;11664;49.774;8.650;2023-04-23T16:39:28;16.10;99.90
22996;DHT22;11664;49.774;8.650;2023-04-23T16:41:53;16.00;99.90
22996;DHT22;11664;49.774;8.650;2023-04-23T16:44:19;15.90;99.90
22996;DHT22;11664;49.774;8.650;2023-04-23T16:46:44;15.80;99.90
22996;DHT22;11664;49.774;8.650;2023-04-23T16:49:11;15.80;99.90
22996;DHT22;11664;49.774;8.650;2023-04-23T16:51:37;15.70;99.90
22996;DHT22;11664;49.774;8.650;2023-04-23T16:54:03;15.70;99.90
22996;DHT22;11664;49.774;8.650;2023-04-23T16:56:28;15.60;99.90
22996;DHT22;11664;49.774;8.650;2023-04-23T16:58:54;15.50;99.90